sensor_id;sensor_type;location;lat;lon;timestamp;pressure;altitude;pressure_sealevel;temperature;humidity
65534;BME280;53640;55.838;37.184;2023-06-04T00:00:09;99374.69;;;4.77;59.10
65534;BME280;53640;55.838;37.184;2023-06-04T00:02:37;99337.00;;;4.56;59.06
65534;BME280;53640;55.838;37.184;2023-06-04T00:05:06;99329.66;;;4.49;58.94
65534;BME280;53640;55.838;37.184;2023-06-04T00:07:33;99372.81;;;4.63;59.00
65534;BME280;53640;55.838;37.184;2023-06-04T00:09:59;99382.81;;;4.69;59.54
65534;BME280;53640;55.838;37.184;2023-06-04T00:12:26;99333.31;;;4.34;59.42
65534;BME280;53640;55.838;37.184;2023-06-04T00:14:52;99375.44;;;4.48;59.30
65534;BME280;53640;55.838;37.184;2023-06-04T00:17:20;99385.59;;;4.53;59.54
65534;BME280;53640;55.838;37.184;2023-06-04T00:19:47;99375.78;;;4.45;59.43
65534;BME280;53640;55.838;37.184;2023-06-04T00:22:14;99393.66;;;4.53;59.70
65534;BME280;53640;55.838;37.184;2023-06-04T00:24:41;99393.03;;;4.42;59.63
65534;BME280;53640;55.838;37.184;2023-06-04T00:27:08;99375.84;;;4.29;59.55
65534;BME280;53640;55.838;37.184;2023-06-04T00:29:35;99382.22;;;4.28;59.66
65534;BME280;53640;55.838;37.184;2023-06-04T00:32:03;99352.69;;;4.13;59.57
65534;BME280;53640;55.838;37.184;2023-06-04T00:34:30;99368.06;;;4.19;59.59
65534;BME280;53640;55.838;37.184;2023-06-04T00:36:58;99377.06;;;4.26;59.54
65534;BME280;53640;55.838;37.184;2023-06-04T00:39:27;99389.63;;;4.26;59.70
65534;BME280;53640;55.838;37.184;2023-06-04T00:41:55;99395.81;;;4.26;59.93
65534;BME280;53640;55.838;37.184;2023-06-04T00:44:22;99398.03;;;4.22;59.79
65534;BME280;53640;55.838;37.184;2023-06-04T00:46:51;99390.53;;;4.10;59.60
65534;BME280;53640;55.838;37.184;2023-06-04T00:49:21;99405.72;;;4.17;60.12
65534;BME280;53640;55.838;37.184;2023-06-04T00:51:49;99408.44;;;4.09;60.06
65534;BME280;53640;55.838;37.184;2023-06-04T00:54:15;99409.28;;;4.10;60.05
65534;BME280;53640;55.838;37.184;2023-06-04T00:56:44;99415.50;;;4.10;60.02
65534;BME280;53640;55.838;37.184;2023-06-04T00:59:10;99375.75;;;3.83;60.23
65534;BME280;53640;55.838;37.184;2023-06-04T01:01:45;99424.88;;;4.06;60.16
65534;BME280;53640;55.838;37.184;2023-06-04T01:07:14;99431.47;;;3.95;60.16
65534;BME280;53640;55.838;37.184;2023-06-04T01:09:44;99412.22;;;3.84;60.77
65534;BME280;53640;55.838;37.184;2023-06-04T01:12:13;99424.28;;;3.88;60.72
65534;BME280;53640;55.838;37.184;2023-06-04T01:14:40;99424.63;;;3.85;60.49
65534;BME280;53640;55.838;37.184;2023-06-04T01:17:19;99406.09;;;3.75;60.53
65534;BME280;53640;55.838;37.184;2023-06-04T01:25:24;99375.56;;;3.45;60.38
65534;BME280;53640;55.838;37.184;2023-06-04T01:27:55;99392.94;;;3.49;60.77
65534;BME280;53640;55.838;37.184;2023-06-04T01:30:26;99422.50;;;3.64;60.76
65534;BME280;53640;55.838;37.184;2023-06-04T01:32:55;99445.59;;;3.73;60.82
65534;BME280;53640;55.838;37.184;2023-06-04T01:35:22;99435.53;;;3.75;60.72
65534;BME280;53640;55.838;37.184;2023-06-04T01:37:50;99419.34;;;3.60;60.52
65534;BME280;53640;55.838;37.184;2023-06-04T01:40:18;99454.75;;;3.79;60.78
65534;BME280;53640;55.838;37.184;2023-06-04T01:42:46;99404.31;;;3.51;60.62
65534;BME280;53640;55.838;37.184;2023-06-04T01:45:13;99457.28;;;3.80;60.67
65534;BME280;53640;55.838;37.184;2023-06-04T01:47:39;99452.09;;;3.79;60.46
65534;BME280;53640;55.838;37.184;2023-06-04T01:50:08;99455.44;;;3.81;60.51
65534;BME280;53640;55.838;37.184;2023-06-04T01:52:38;99453.94;;;3.78;60.69
65534;BME280;53640;55.838;37.184;2023-06-04T01:55:07;99464.78;;;3.85;60.62
65534;BME280;53640;55.838;37.184;2023-06-04T01:57:34;99463.78;;;3.86;60.61
65534;BME280;53640;55.838;37.184;2023-06-04T02:00:06;99435.88;;;3.72;60.58
65534;BME280;53640;55.838;37.184;2023-06-04T02:02:42;99449.91;;;3.82;60.50
65534;BME280;53640;55.838;37.184;2023-06-04T02:05:09;99468.63;;;3.90;60.28
65534;BME280;53640;55.838;37.184;2023-06-04T02:07:37;99462.28;;;3.91;60.35
65534;BME280;53640;55.838;37.184;2023-06-04T02:10:16;99460.25;;;3.93;60.63
65534;BME280;53640;55.838;37.184;2023-06-04T02:12:56;99456.09;;;3.83;60.48
65534;BME280;53640;55.838;37.184;2023-06-04T02:15:27;99469.09;;;3.94;60.72
65534;BME280;53640;55.838;37.184;2023-06-04T02:18:19;99492.19;;;4.03;60.47
65534;BME280;53640;55.838;37.184;2023-06-04T02:21:08;99485.66;;;3.97;60.74
65534;BME280;53640;55.838;37.184;2023-06-04T02:23:40;99497.72;;;4.02;60.62
65534;BME280;53640;55.838;37.184;2023-06-04T02:26:06;99494.88;;;4.03;60.71
65534;BME280;53640;55.838;37.184;2023-06-04T02:28:32;99481.84;;;3.92;60.43
65534;BME280;53640;55.838;37.184;2023-06-04T02:30:59;99485.03;;;3.95;60.86
65534;BME280;53640;55.838;37.184;2023-06-04T02:33:26;99481.84;;;3.92;60.44
65534;BME280;53640;55.838;37.184;2023-06-04T02:35:56;99508.28;;;4.03;60.78
65534;BME280;53640;55.838;37.184;2023-06-04T02:38:24;99515.09;;;4.06;60.73
65534;BME280;53640;55.838;37.184;2023-06-04T02:40:51;99517.63;;;4.07;61.12
65534;BME280;53640;55.838;37.184;2023-06-04T02:43:17;99476.69;;;3.82;60.88
65534;BME280;53640;55.838;37.184;2023-06-04T02:45:44;99508.56;;;4.08;61.05
65534;BME280;53640;55.838;37.184;2023-06-04T02:48:11;99515.25;;;4.12;60.94
65534;BME280;53640;55.838;37.184;2023-06-04T02:50:38;99507.75;;;4.08;60.69
65534;BME280;53640;55.838;37.184;2023-06-04T02:53:05;99517.44;;;4.09;61.10
65534;BME280;53640;55.838;37.184;2023-06-04T02:55:33;99476.00;;;3.88;61.15
65534;BME280;53640;55.838;37.184;2023-06-04T02:58:00;99535.00;;;4.19;61.10
65534;BME280;53640;55.838;37.184;2023-06-04T03:00:26;99517.28;;;4.10;60.89
65534;BME280;53640;55.838;37.184;2023-06-04T03:02:53;99523.81;;;4.08;61.00
65534;BME280;53640;55.838;37.184;2023-06-04T03:05:27;99544.19;;;4.25;61.37
65534;BME280;53640;55.838;37.184;2023-06-04T03:07:56;99527.63;;;4.13;61.16
65534;BME280;53640;55.838;37.184;2023-06-04T03:10:23;99533.34;;;4.18;61.33
65534;BME280;53640;55.838;37.184;2023-06-04T03:12:49;99537.50;;;4.29;61.40
65534;BME280;53640;55.838;37.184;2023-06-04T03:15:16;99526.28;;;4.26;61.15
65534;BME280;53640;55.838;37.184;2023-06-04T03:17:42;99556.72;;;4.41;61.25
65534;BME280;53640;55.838;37.184;2023-06-04T03:20:10;99538.97;;;4.32;61.26
65534;BME280;53640;55.838;37.184;2023-06-04T03:22:37;99567.69;;;4.54;61.59
65534;BME280;53640;55.838;37.184;2023-06-04T03:25:04;99556.81;;;4.56;61.34
65534;BME280;53640;55.838;37.184;2023-06-04T03:27:35;99562.19;;;4.56;60.93
65534;BME280;53640;55.838;37.184;2023-06-04T03:30:05;99578.72;;;4.67;61.19
65534;BME280;53640;55.838;37.184;2023-06-04T03:32:56;99576.03;;;4.67;61.02
65534;BME280;53640;55.838;37.184;2023-06-04T03:35:23;99481.94;;;4.15;60.93
65534;BME280;53640;55.838;37.184;2023-06-04T03:37:50;99573.13;;;4.77;61.19
65534;BME280;53640;55.838;37.184;2023-06-04T03:40:16;99574.44;;;4.81;60.85
65534;BME280;53640;55.838;37.184;2023-06-04T03:42:45;99509.59;;;4.46;61.00
65534;BME280;53640;55.838;37.184;2023-06-04T03:45:13;99542.97;;;4.75;60.62
65534;BME280;53640;55.838;37.184;2023-06-04T03:47:39;99557.38;;;4.82;60.64
65534;BME280;53640;55.838;37.184;2023-06-04T03:50:07;99551.94;;;4.90;60.72
65534;BME280;53640;55.838;37.184;2023-06-04T03:52:36;99585.00;;;5.14;61.08
65534;BME280;53640;55.838;37.184;2023-06-04T03:55:04;99580.31;;;5.16;60.92
65534;BME280;53640;55.838;37.184;2023-06-04T03:57:32;99548.31;;;5.06;60.41
65534;BME280;53640;55.838;37.184;2023-06-04T04:00:00;99594.59;;;5.39;60.33
65534;BME280;53640;55.838;37.184;2023-06-04T04:02:27;99595.91;;;5.43;60.46
65534;BME280;53640;55.838;37.184;2023-06-04T04:04:53;99559.94;;;5.30;60.28
65534;BME280;53640;55.838;37.184;2023-06-04T04:07:21;99590.13;;;5.55;60.32
65534;BME280;53640;55.838;37.184;2023-06-04T04:09:51;99572.53;;;5.52;60.01
65534;BME280;53640;55.838;37.184;2023-06-04T04:12:18;99581.06;;;5.56;60.14
65534;BME280;53640;55.838;37.184;2023-06-04T04:14:44;99564.66;;;5.51;60.27
65534;BME280;53640;55.838;37.184;2023-06-04T04:17:14;99606.22;;;5.78;59.70
65534;BME280;53640;55.838;37.184;2023-06-04T04:19:42;99570.44;;;5.62;59.77
65534;BME280;53640;55.838;37.184;2023-06-04T04:22:12;99607.66;;;5.88;59.52
65534;BME280;53640;55.838;37.184;2023-06-04T04:24:43;99606.28;;;5.92;60.03
65534;BME280;53640;55.838;37.184;2023-06-04T04:27:10;99613.06;;;6.03;59.70
65534;BME280;53640;55.838;37.184;2023-06-04T04:29:41;99613.91;;;6.04;59.56
65534;BME280;53640;55.838;37.184;2023-06-04T04:32:10;99602.66;;;6.00;60.24
65534;BME280;53640;55.838;37.184;2023-06-04T04:34:38;99570.50;;;5.92;59.72
65534;BME280;53640;55.838;37.184;2023-06-04T04:37:09;99610.03;;;6.21;59.02
65534;BME280;53640;55.838;37.184;2023-06-04T04:39:37;99608.53;;;6.18;58.62
65534;BME280;53640;55.838;37.184;2023-06-04T04:42:04;99583.16;;;6.06;58.99
65534;BME280;53640;55.838;37.184;2023-06-04T04:44:30;99616.06;;;6.38;59.24
65534;BME280;53640;55.838;37.184;2023-06-04T04:46:57;99624.88;;;6.47;59.01
65534;BME280;53640;55.838;37.184;2023-06-04T04:49:24;99621.66;;;6.51;58.77
65534;BME280;53640;55.838;37.184;2023-06-04T04:51:51;99626.28;;;6.57;59.22
65534;BME280;53640;55.838;37.184;2023-06-04T04:54:18;99601.34;;;6.49;58.52
65534;BME280;53640;55.838;37.184;2023-06-04T04:56:45;99570.38;;;6.38;58.82
65534;BME280;53640;55.838;37.184;2023-06-04T04:59:11;99628.22;;;6.78;59.03
65534;BME280;53640;55.838;37.184;2023-06-04T05:01:38;99622.03;;;6.78;58.53
65534;BME280;53640;55.838;37.184;2023-06-04T05:04:06;99617.75;;;6.83;57.76
65534;BME280;53640;55.838;37.184;2023-06-04T05:06:32;99626.31;;;6.87;57.51
65534;BME280;53640;55.838;37.184;2023-06-04T05:08:59;99622.22;;;6.91;57.88
65534;BME280;53640;55.838;37.184;2023-06-04T05:11:26;99631.88;;;7.00;58.07
65534;BME280;53640;55.838;37.184;2023-06-04T05:13:53;99625.47;;;7.01;57.86
65534;BME280;53640;55.838;37.184;2023-06-04T05:16:21;99636.94;;;7.10;57.86
65534;BME280;53640;55.838;37.184;2023-06-04T05:18:48;99649.09;;;7.21;57.14
65534;BME280;53640;55.838;37.184;2023-06-04T05:21:20;99622.91;;;7.14;55.36
65534;BME280;53640;55.838;37.184;2023-06-04T05:23:54;99624.22;;;7.19;55.55
65534;BME280;53640;55.838;37.184;2023-06-04T05:26:24;99644.31;;;7.37;55.83
65534;BME280;53640;55.838;37.184;2023-06-04T05:28:55;99607.56;;;7.30;56.19
65534;BME280;53640;55.838;37.184;2023-06-04T05:31:23;99631.69;;;7.59;56.10
65534;BME280;53640;55.838;37.184;2023-06-04T05:33:54;99624.59;;;7.73;56.43
65534;BME280;53640;55.838;37.184;2023-06-04T05:36:23;99613.41;;;7.76;56.22
65534;BME280;53640;55.838;37.184;2023-06-04T05:38:56;99601.00;;;7.82;55.97
65534;BME280;53640;55.838;37.184;2023-06-04T05:41:27;99568.81;;;7.74;56.00
65534;BME280;53640;55.838;37.184;2023-06-04T05:43:54;99594.72;;;7.96;55.69
65534;BME280;53640;55.838;37.184;2023-06-04T05:46:21;99625.25;;;8.25;54.16
65534;BME280;53640;55.838;37.184;2023-06-04T05:48:51;99625.94;;;8.33;54.25
65534;BME280;53640;55.838;37.184;2023-06-04T05:51:20;99596.16;;;8.20;53.46
65534;BME280;53640;55.838;37.184;2023-06-04T05:53:47;99618.34;;;8.44;53.79
65534;BME280;53640;55.838;37.184;2023-06-04T05:56:15;99549.63;;;8.11;52.67
65534;BME280;53640;55.838;37.184;2023-06-04T05:58:43;99629.84;;;8.59;52.70
65534;BME280;53640;55.838;37.184;2023-06-04T06:01:11;99633.03;;;8.76;52.86
65534;BME280;53640;55.838;37.184;2023-06-04T06:03:37;99580.63;;;8.57;52.89
65534;BME280;53640;55.838;37.184;2023-06-04T06:06:04;99629.84;;;9.00;51.11
65534;BME280;53640;55.838;37.184;2023-06-04T06:08:31;99635.72;;;9.11;51.40
65534;BME280;53640;55.838;37.184;2023-06-04T06:10:58;99634.09;;;9.23;51.28
65534;BME280;53640;55.838;37.184;2023-06-04T06:13:24;99630.81;;;9.34;49.14
65534;BME280;53640;55.838;37.184;2023-06-04T06:15:51;99596.44;;;9.08;49.50
65534;BME280;53640;55.838;37.184;2023-06-04T06:18:19;99630.00;;;9.33;48.84
65534;BME280;53640;55.838;37.184;2023-06-04T06:20:45;99589.63;;;9.19;48.27
65534;BME280;53640;55.838;37.184;2023-06-04T06:23:12;99624.44;;;9.55;48.85
65534;BME280;53640;55.838;37.184;2023-06-04T06:25:42;99634.69;;;9.73;48.52
65534;BME280;53640;55.838;37.184;2023-06-04T06:28:17;99642.38;;;9.89;47.83
65534;BME280;53640;55.838;37.184;2023-06-04T06:30:47;99625.97;;;9.97;46.54
65534;BME280;53640;55.838;37.184;2023-06-04T06:33:14;99639.06;;;10.07;46.79
65534;BME280;53640;55.838;37.184;2023-06-04T06:35:40;99603.91;;;10.00;46.38
65534;BME280;53640;55.838;37.184;2023-06-04T06:38:07;99619.50;;;10.25;45.81
65534;BME280;53640;55.838;37.184;2023-06-04T06:40:34;99596.22;;;10.17;45.56
65534;BME280;53640;55.838;37.184;2023-06-04T06:43:00;99621.78;;;10.48;45.75
65534;BME280;53640;55.838;37.184;2023-06-04T06:45:27;99622.38;;;10.57;44.97
65534;BME280;53640;55.838;37.184;2023-06-04T06:47:54;99634.28;;;10.69;45.05
65534;BME280;53640;55.838;37.184;2023-06-04T06:50:21;99630.75;;;10.68;42.13
65534;BME280;53640;55.838;37.184;2023-06-04T06:52:48;99612.38;;;10.70;43.26
65534;BME280;53640;55.838;37.184;2023-06-04T06:55:14;99624.03;;;10.84;43.24
65534;BME280;53640;55.838;37.184;2023-06-04T06:57:43;99617.13;;;10.88;42.78
65534;BME280;53640;55.838;37.184;2023-06-04T07:00:10;99611.28;;;10.91;42.38
65534;BME280;53640;55.838;37.184;2023-06-04T07:02:37;99638.91;;;11.13;42.04
65534;BME280;53640;55.838;37.184;2023-06-04T07:05:03;99595.41;;;11.01;41.62
65534;BME280;53640;55.838;37.184;2023-06-04T07:07:31;99633.00;;;11.30;41.37
65534;BME280;53640;55.838;37.184;2023-06-04T07:09:58;99643.81;;;11.36;41.30
65534;BME280;53640;55.838;37.184;2023-06-04T07:12:28;99512.47;;;10.49;38.75
65534;BME280;53640;55.838;37.184;2023-06-04T07:14:57;99488.41;;;10.27;40.22
65534;BME280;53640;55.838;37.184;2023-06-04T07:17:51;99576.34;;;10.76;42.02
65534;BME280;53640;55.838;37.184;2023-06-04T07:20:18;99545.94;;;10.68;41.22
65534;BME280;53640;55.838;37.184;2023-06-04T07:22:46;99558.81;;;10.86;40.79
65534;BME280;53640;55.838;37.184;2023-06-04T07:25:14;99584.94;;;11.12;41.21
65534;BME280;53640;55.838;37.184;2023-06-04T07:27:42;99530.50;;;10.75;42.46
65534;BME280;53640;55.838;37.184;2023-06-04T07:30:21;99653.19;;;11.40;40.83
65534;BME280;53640;55.838;37.184;2023-06-04T07:32:50;99579.78;;;10.97;40.72
65534;BME280;53640;55.838;37.184;2023-06-04T07:35:17;99578.13;;;10.96;41.16
65534;BME280;53640;55.838;37.184;2023-06-04T07:37:44;99556.75;;;10.81;40.36
65534;BME280;53640;55.838;37.184;2023-06-04T07:40:11;99606.84;;;11.10;40.34
65534;BME280;53640;55.838;37.184;2023-06-04T07:42:40;99582.75;;;10.89;40.00
65534;BME280;53640;55.838;37.184;2023-06-04T07:45:15;99651.75;;;11.31;38.82
65534;BME280;53640;55.838;37.184;2023-06-04T07:47:43;99603.66;;;11.13;39.32
65534;BME280;53640;55.838;37.184;2023-06-04T07:50:10;99618.56;;;11.36;38.45
65534;BME280;53640;55.838;37.184;2023-06-04T07:52:37;99628.91;;;11.59;38.63
65534;BME280;53640;55.838;37.184;2023-06-04T07:55:04;99554.72;;;11.15;39.50
65534;BME280;53640;55.838;37.184;2023-06-04T07:57:33;99520.44;;;10.95;38.83
65534;BME280;53640;55.838;37.184;2023-06-04T08:00:01;99570.28;;;11.26;38.19
65534;BME280;53640;55.838;37.184;2023-06-04T08:02:40;99632.59;;;11.64;38.26
65534;BME280;53640;55.838;37.184;2023-06-04T08:05:07;99622.88;;;11.50;38.27
65534;BME280;53640;55.838;37.184;2023-06-04T08:07:34;99610.16;;;11.50;38.54
65534;BME280;53640;55.838;37.184;2023-06-04T08:10:01;99619.72;;;11.60;38.70
65534;BME280;53640;55.838;37.184;2023-06-04T08:12:30;99577.69;;;11.44;38.58
65534;BME280;53640;55.838;37.184;2023-06-04T08:14:59;99614.28;;;11.91;38.12
65534;BME280;53640;55.838;37.184;2023-06-04T08:17:26;99658.50;;;12.23;37.43
65534;BME280;53640;55.838;37.184;2023-06-04T08:19:58;99615.34;;;11.90;35.33
65534;BME280;53640;55.838;37.184;2023-06-04T08:22:47;99554.78;;;11.40;35.38
65534;BME280;53640;55.838;37.184;2023-06-04T08:25:25;99535.47;;;11.23;35.74
65534;BME280;53640;55.838;37.184;2023-06-04T08:27:59;99551.28;;;11.33;36.23
65534;BME280;53640;55.838;37.184;2023-06-04T08:30:46;99563.53;;;11.35;36.20
65534;BME280;53640;55.838;37.184;2023-06-04T08:33:24;99576.59;;;11.51;35.89
65534;BME280;53640;55.838;37.184;2023-06-04T08:35:57;99627.81;;;11.98;35.87
65534;BME280;53640;55.838;37.184;2023-06-04T08:38:24;99550.59;;;11.69;35.64
65534;BME280;53640;55.838;37.184;2023-06-04T08:40:53;99659.50;;;12.79;35.66
65534;BME280;53640;55.838;37.184;2023-06-04T08:43:24;99649.25;;;12.75;33.38
65534;BME280;53640;55.838;37.184;2023-06-04T08:45:58;99672.53;;;13.07;33.81
65534;BME280;53640;55.838;37.184;2023-06-04T08:48:26;99608.31;;;12.76;34.19
65534;BME280;53640;55.838;37.184;2023-06-04T08:50:57;99602.66;;;12.78;34.59
65534;BME280;53640;55.838;37.184;2023-06-04T08:53:27;99582.84;;;12.70;34.62
65534;BME280;53640;55.838;37.184;2023-06-04T08:56:00;99527.31;;;12.30;34.79
65534;BME280;53640;55.838;37.184;2023-06-04T08:58:31;99601.25;;;12.50;34.45
65534;BME280;53640;55.838;37.184;2023-06-04T09:01:02;99589.69;;;12.36;34.38
65534;BME280;53640;55.838;37.184;2023-06-04T09:03:29;99662.22;;;12.72;34.16
65534;BME280;53640;55.838;37.184;2023-06-04T09:06:03;99530.97;;;11.73;34.13
65534;BME280;53640;55.838;37.184;2023-06-04T09:08:31;99666.09;;;12.40;34.06
65534;BME280;53640;55.838;37.184;2023-06-04T09:11:10;99540.81;;;11.68;34.84
65534;BME280;53640;55.838;37.184;2023-06-04T09:14:18;99677.66;;;12.54;34.64
65534;BME280;53640;55.838;37.184;2023-06-04T09:17:45;99552.09;;;11.96;34.54
65534;BME280;53640;55.838;37.184;2023-06-04T09:20:19;99610.94;;;12.64;34.42
65534;BME280;53640;55.838;37.184;2023-06-04T09:22:46;99524.09;;;12.58;33.58
65534;BME280;53640;55.838;37.184;2023-06-04T09:25:25;99552.09;;;13.25;32.42
65534;BME280;53640;55.838;37.184;2023-06-04T09:27:54;99573.00;;;13.55;32.56
65534;BME280;53640;55.838;37.184;2023-06-04T09:30:23;99529.91;;;13.40;31.33
65534;BME280;53640;55.838;37.184;2023-06-04T09:32:50;99595.31;;;13.75;31.83
65534;BME280;53640;55.838;37.184;2023-06-04T09:35:19;99637.94;;;13.93;32.00
65534;BME280;53640;55.838;37.184;2023-06-04T09:37:56;99665.19;;;14.05;32.18
65534;BME280;53640;55.838;37.184;2023-06-04T09:40:35;99633.78;;;13.79;32.48
65534;BME280;53640;55.838;37.184;2023-06-04T09:43:02;99624.91;;;13.83;32.50
65534;BME280;53640;55.838;37.184;2023-06-04T09:45:30;99562.31;;;13.41;31.71
65534;BME280;53640;55.838;37.184;2023-06-04T09:47:59;99666.84;;;14.06;32.25
65534;BME280;53640;55.838;37.184;2023-06-04T09:50:33;99571.59;;;13.64;32.00
65534;BME280;53640;55.838;37.184;2023-06-04T09:53:01;99643.19;;;14.18;30.28
65534;BME280;53640;55.838;37.184;2023-06-04T09:55:31;99568.75;;;14.01;30.29
65534;BME280;53640;55.838;37.184;2023-06-04T09:57:58;99594.53;;;14.80;30.00
65534;BME280;53640;55.838;37.184;2023-06-04T10:00:26;99652.56;;;15.85;29.06
65534;BME280;53640;55.838;37.184;2023-06-04T10:02:58;99662.59;;;16.30;28.92
65534;BME280;53640;55.838;37.184;2023-06-04T10:05:31;99626.28;;;16.46;28.12
65534;BME280;53640;55.838;37.184;2023-06-04T10:08:03;99651.41;;;16.31;26.24
65534;BME280;53640;55.838;37.184;2023-06-04T10:10:34;99654.91;;;16.44;28.01
65534;BME280;53640;55.838;37.184;2023-06-04T10:13:10;99649.31;;;16.33;26.56
65534;BME280;53640;55.838;37.184;2023-06-04T10:15:41;99648.78;;;16.03;26.32
65534;BME280;53640;55.838;37.184;2023-06-04T10:18:10;99640.47;;;15.81;26.17
65534;BME280;53640;55.838;37.184;2023-06-04T10:20:37;99628.94;;;15.62;27.67
65534;BME280;53640;55.838;37.184;2023-06-04T10:23:04;99551.59;;;14.99;27.46
65534;BME280;53640;55.838;37.184;2023-06-04T10:25:32;99647.63;;;15.70;27.66
65534;BME280;53640;55.838;37.184;2023-06-04T10:27:59;99595.69;;;15.65;27.74
65534;BME280;53640;55.838;37.184;2023-06-04T10:30:26;99571.09;;;16.32;26.50
65534;BME280;53640;55.838;37.184;2023-06-04T10:32:56;99626.88;;;17.53;25.62
65534;BME280;53640;55.838;37.184;2023-06-04T10:35:30;99639.28;;;17.88;25.27
65534;BME280;53640;55.838;37.184;2023-06-04T10:38:06;99652.66;;;17.57;24.86
65534;BME280;53640;55.838;37.184;2023-06-04T10:40:34;99637.63;;;17.38;25.68
65534;BME280;53640;55.838;37.184;2023-06-04T10:43:12;99645.28;;;17.36;25.87
65534;BME280;53640;55.838;37.184;2023-06-04T10:45:40;99650.06;;;17.72;25.54
65534;BME280;53640;55.838;37.184;2023-06-04T10:48:08;99629.00;;;18.32;25.20
65534;BME280;53640;55.838;37.184;2023-06-04T10:50:57;99614.28;;;19.54;22.19
65534;BME280;53640;55.838;37.184;2023-06-04T10:53:23;99618.75;;;20.06;23.04
65534;BME280;53640;55.838;37.184;2023-06-04T10:55:50;99644.00;;;19.82;22.02
65534;BME280;53640;55.838;37.184;2023-06-04T10:58:16;99605.91;;;19.13;21.50
65534;BME280;53640;55.838;37.184;2023-06-04T11:00:45;99615.16;;;18.54;22.41
65534;BME280;53640;55.838;37.184;2023-06-04T11:03:13;99633.63;;;17.94;22.82
65534;BME280;53640;55.838;37.184;2023-06-04T11:05:42;99615.84;;;17.48;24.12
65534;BME280;53640;55.838;37.184;2023-06-04T11:08:11;99639.31;;;17.17;24.64
65534;BME280;53640;55.838;37.184;2023-06-04T11:10:39;99640.59;;;16.70;24.51
65534;BME280;53640;55.838;37.184;2023-06-04T11:13:08;99650.47;;;16.38;25.86
65534;BME280;53640;55.838;37.184;2023-06-04T11:15:43;99616.13;;;15.79;25.88
65534;BME280;53640;55.838;37.184;2023-06-04T11:18:20;99646.00;;;15.69;25.90
65534;BME280;53640;55.838;37.184;2023-06-04T11:20:49;99635.78;;;15.36;25.82
65534;BME280;53640;55.838;37.184;2023-06-04T11:23:16;99639.31;;;15.36;26.54
65534;BME280;53640;55.838;37.184;2023-06-04T11:25:44;99638.00;;;15.51;26.86
65534;BME280;53640;55.838;37.184;2023-06-04T11:28:16;99647.56;;;15.65;27.14
65534;BME280;53640;55.838;37.184;2023-06-04T11:30:59;99646.97;;;15.63;26.25
65534;BME280;53640;55.838;37.184;2023-06-04T11:33:49;99647.00;;;15.51;27.08
65534;BME280;53640;55.838;37.184;2023-06-04T11:36:29;99586.78;;;15.01;26.30
65534;BME280;53640;55.838;37.184;2023-06-04T11:39:01;99635.97;;;15.06;27.03
65534;BME280;53640;55.838;37.184;2023-06-04T11:41:32;99631.16;;;14.84;26.84
65534;BME280;53640;55.838;37.184;2023-06-04T11:44:02;99643.25;;;14.65;27.44
65534;BME280;53640;55.838;37.184;2023-06-04T11:46:32;99661.00;;;14.56;27.82
65534;BME280;53640;55.838;37.184;2023-06-04T11:48:59;99637.28;;;14.33;27.87
65534;BME280;53640;55.838;37.184;2023-06-04T11:51:26;99648.19;;;14.33;28.12
65534;BME280;53640;55.838;37.184;2023-06-04T11:53:53;99610.84;;;13.98;28.57
65534;BME280;53640;55.838;37.184;2023-06-04T11:56:24;99648.53;;;14.13;27.61
65534;BME280;53640;55.838;37.184;2023-06-04T11:58:54;99590.34;;;13.72;28.13
65534;BME280;53640;55.838;37.184;2023-06-04T12:01:25;99617.72;;;13.89;28.40
65534;BME280;53640;55.838;37.184;2023-06-04T12:03:55;99581.72;;;13.75;28.73
65534;BME280;53640;55.838;37.184;2023-06-04T12:06:23;99565.88;;;13.84;28.72
65534;BME280;53640;55.838;37.184;2023-06-04T12:08:54;99526.50;;;14.33;28.59
65534;BME280;53640;55.838;37.184;2023-06-04T12:11:36;99593.69;;;15.32;27.21
65534;BME280;53640;55.838;37.184;2023-06-04T12:14:05;99579.56;;;15.35;26.47
65534;BME280;53640;55.838;37.184;2023-06-04T12:16:35;99518.78;;;14.94;26.63
65534;BME280;53640;55.838;37.184;2023-06-04T12:19:06;99629.44;;;15.47;26.50
65534;BME280;53640;55.838;37.184;2023-06-04T12:21:34;99544.28;;;14.88;26.40
65534;BME280;53640;55.838;37.184;2023-06-04T12:24:11;99587.13;;;15.04;25.88
65534;BME280;53640;55.838;37.184;2023-06-04T12:26:43;99572.75;;;14.80;26.35
65534;BME280;53640;55.838;37.184;2023-06-04T12:29:17;99641.19;;;15.07;26.75
65534;BME280;53640;55.838;37.184;2023-06-04T12:32:01;99538.56;;;14.37;27.33
65534;BME280;53640;55.838;37.184;2023-06-04T12:34:40;99592.56;;;15.16;26.83
65534;BME280;53640;55.838;37.184;2023-06-04T12:37:21;99559.72;;;16.02;26.21
65534;BME280;53640;55.838;37.184;2023-06-04T12:40:06;99651.06;;;17.61;24.96
65534;BME280;53640;55.838;37.184;2023-06-04T12:43:22;99652.63;;;18.75;24.11
65534;BME280;53640;55.838;37.184;2023-06-04T12:45:52;99672.84;;;19.12;22.20
65534;BME280;53640;55.838;37.184;2023-06-04T12:48:20;99652.75;;;18.96;22.00
65534;BME280;53640;55.838;37.184;2023-06-04T12:50:47;99649.78;;;18.65;22.50
65534;BME280;53640;55.838;37.184;2023-06-04T12:53:13;99651.25;;;18.41;22.71
65534;BME280;53640;55.838;37.184;2023-06-04T12:55:49;99648.31;;;18.15;23.14
65534;BME280;53640;55.838;37.184;2023-06-04T12:58:17;99621.03;;;17.71;23.12
65534;BME280;53640;55.838;37.184;2023-06-04T13:00:44;99660.56;;;17.53;23.50
65534;BME280;53640;55.838;37.184;2023-06-04T13:03:11;99626.28;;;17.07;24.19
65534;BME280;53640;55.838;37.184;2023-06-04T13:05:38;99645.88;;;16.99;24.21
65534;BME280;53640;55.838;37.184;2023-06-04T13:08:07;99644.59;;;16.85;24.76
65534;BME280;53640;55.838;37.184;2023-06-04T13:10:35;99544.59;;;16.11;25.41
65534;BME280;53640;55.838;37.184;2023-06-04T13:13:14;99571.63;;;16.13;25.52
65534;BME280;53640;55.838;37.184;2023-06-04T13:15:51;99593.97;;;15.93;24.91
65534;BME280;53640;55.838;37.184;2023-06-04T13:18:18;99646.13;;;16.08;25.08